createdAt,value
2022-11-29T00:01:34.172Z,98.30
2022-11-29T00:04:01.979Z,61.03
2022-11-29T00:06:31.047Z,55.33
2022-11-29T00:09:00.562Z,136.67
2022-11-29T00:11:47.629Z,74.00
2022-11-29T00:14:16.222Z,75.82
2022-11-29T00:16:43.933Z,91.30
2022-11-29T00:19:12.074Z,74.70
2022-11-29T00:21:39.763Z,80.15
2022-11-29T00:24:07.491Z,102.77
2022-11-29T00:26:37.113Z,46.30
2022-11-29T00:29:04.983Z,57.83
2022-11-29T00:31:32.953Z,70.32
2022-11-29T00:34:01.018Z,57.23
2022-11-29T00:36:28.767Z,57.60
2022-11-29T00:38:56.474Z,85.82
2022-11-29T00:41:24.083Z,108.47
2022-11-29T00:43:51.677Z,96.03
2022-11-29T00:46:19.222Z,66.75
2022-11-29T00:48:46.875Z,119.97
2022-11-29T00:51:14.427Z,79.15
2022-11-29T00:53:41.973Z,173.30
2022-11-29T00:56:09.572Z,83.50
2022-11-29T00:58:37.499Z,98.13
2022-11-29T01:01:07.895Z,105.88
2022-11-29T01:03:35.494Z,110.75
2022-11-29T01:06:06.796Z,55.47
2022-11-29T01:08:34.338Z,90.80
2022-11-29T01:11:05.491Z,90.10
2022-11-29T01:13:33.175Z,37.67
2022-11-29T01:16:00.919Z,31.17
2022-11-29T01:18:31.034Z,40.97
2022-11-29T01:20:59.390Z,66.57
2022-11-29T01:23:27.063Z,37.07
2022-11-29T01:26:02.459Z,69.28
2022-11-29T01:28:30.073Z,54.90
2022-11-29T01:30:57.801Z,40.47
2022-11-29T01:33:25.423Z,35.90
2022-11-29T01:35:53.635Z,56.35
2022-11-29T01:38:21.679Z,42.70
2022-11-29T01:41:02.895Z,29.95
2022-11-29T01:43:30.692Z,31.02
2022-11-29T01:45:58.302Z,37.25
2022-11-29T01:48:29.700Z,28.73
2022-11-29T01:50:58.465Z,32.53
2022-11-29T01:53:26.046Z,30.70
2022-11-29T01:55:55.199Z,35.97
2022-11-29T01:58:22.759Z,26.23
2022-11-29T02:00:50.345Z,26.30
2022-11-29T02:03:18.401Z,33.90
2022-11-29T02:05:47.172Z,31.60
2022-11-29T02:08:15.231Z,21.92
2022-11-29T02:10:46.287Z,28.17
2022-11-29T02:13:21.247Z,23.50
2022-11-29T02:15:54.872Z,25.95
2022-11-29T02:18:45.125Z,29.48
2022-11-29T02:21:28.342Z,23.93
2022-11-29T02:24:14.671Z,31.30
2022-11-29T02:27:01.160Z,23.75
2022-11-29T02:29:31.530Z,23.87
2022-11-29T02:32:17.732Z,27.10
2022-11-29T02:34:54.922Z,43.72
2022-11-29T02:37:41.167Z,42.63
2022-11-29T02:40:09.135Z,43.53
2022-11-29T02:42:55.653Z,30.95
2022-11-29T02:45:23.885Z,30.10
2022-11-29T02:47:51.467Z,38.47
2022-11-29T02:50:25.254Z,38.00
2022-11-29T02:53:07.414Z,26.58
2022-11-29T02:55:34.951Z,34.80
2022-11-29T02:58:02.559Z,25.38
2022-11-29T03:00:30.945Z,28.02
2022-11-29T03:03:01.169Z,29.30
2022-11-29T03:05:31.913Z,21.93
2022-11-29T03:08:02.227Z,31.20
2022-11-29T03:10:29.807Z,24.27
2022-11-29T03:12:57.337Z,20.80
2022-11-29T03:15:33.494Z,21.88
2022-11-29T03:18:20.645Z,28.40
2022-11-29T03:20:54.043Z,34.60
2022-11-29T03:23:24.722Z,28.38
2022-11-29T03:25:55.014Z,22.00
2022-11-29T03:28:48.792Z,37.38
2022-11-29T03:31:28.161Z,38.90
2022-11-29T03:34:01.483Z,42.08
2022-11-29T03:36:34.915Z,31.20
2022-11-29T03:39:04.871Z,28.83
2022-11-29T03:41:40.265Z,34.35
2022-11-29T03:44:07.756Z,30.98
2022-11-29T03:46:47.376Z,35.07
2022-11-29T03:49:23.039Z,36.33
2022-11-29T03:52:09.585Z,49.47
2022-11-29T03:54:56.024Z,39.45
2022-11-29T03:57:27.155Z,48.10
2022-11-29T04:00:00.839Z,44.13
2022-11-29T04:02:43.826Z,40.80
2022-11-29T04:05:18.232Z,40.50
2022-11-29T04:07:58.192Z,52.95
2022-11-29T04:10:27.236Z,31.48
2022-11-29T04:13:00.927Z,38.40
2022-11-29T04:15:46.687Z,34.22
2022-11-29T04:18:32.876Z,28.83
2022-11-29T04:21:00.405Z,30.33
2022-11-29T04:23:37.236Z,23.53
2022-11-29T04:26:10.568Z,26.00
2022-11-29T04:28:56.905Z,23.58
2022-11-29T04:31:29.771Z,19.13
2022-11-29T04:34:09.751Z,21.20
2022-11-29T04:36:40.159Z,23.27
2022-11-29T04:39:10.625Z,22.77
2022-11-29T04:41:43.958Z,23.92
2022-11-29T04:44:14.363Z,30.33
2022-11-29T04:46:54.006Z,27.02
2022-11-29T04:49:36.771Z,27.47
2022-11-29T04:52:22.803Z,34.05
2022-11-29T04:54:50.447Z,32.70
2022-11-29T04:57:22.076Z,34.33
2022-11-29T04:59:52.395Z,25.85
2022-11-29T05:02:34.922Z,44.33
2022-11-29T05:05:06.798Z,40.50
2022-11-29T05:07:40.647Z,37.67
2022-11-29T05:10:08.259Z,22.45
2022-11-29T05:12:38.722Z,32.50
2022-11-29T05:15:18.401Z,51.20
2022-11-29T05:17:51.826Z,51.88
2022-11-29T05:20:22.279Z,34.13
2022-11-29T05:22:52.562Z,20.27
2022-11-29T05:25:26.090Z,25.92
2022-11-29T05:27:57.787Z,19.77
2022-11-29T05:30:25.648Z,23.87
2022-11-29T05:33:06.095Z,27.38
2022-11-29T05:35:50.203Z,26.65
2022-11-29T05:38:22.925Z,20.65
2022-11-29T05:41:04.254Z,25.83
2022-11-29T05:43:55.158Z,27.92
2022-11-29T05:46:25.874Z,12.73
2022-11-29T05:48:59.324Z,12.93
2022-11-29T05:51:38.236Z,16.77
2022-11-29T05:54:25.402Z,24.63
2022-11-29T05:56:53.007Z,18.20
2022-11-29T05:59:22.393Z,11.55
2022-11-29T06:02:02.752Z,15.73
2022-11-29T06:04:34.011Z,27.00
2022-11-29T06:07:01.802Z,22.27
2022-11-29T06:09:31.067Z,38.97
2022-11-29T06:12:02.973Z,41.65
2022-11-29T06:14:36.809Z,35.63
2022-11-29T06:17:04.535Z,67.93
2022-11-29T06:19:41.009Z,46.13
2022-11-29T06:22:27.580Z,49.07
2022-11-29T06:24:56.739Z,25.30
2022-11-29T06:27:31.641Z,25.30
2022-11-29T06:30:07.237Z,17.80
2022-11-29T06:32:46.712Z,15.00
2022-11-29T06:35:35.061Z,16.75
2022-11-29T06:38:04.554Z,12.10
2022-11-29T06:40:33.271Z,12.17
2022-11-29T06:43:03.072Z,26.42
2022-11-29T06:45:30.837Z,11.88
2022-11-29T06:48:02.884Z,17.40
2022-11-29T06:50:30.798Z,21.92
2022-11-29T06:53:10.443Z,18.85
2022-11-29T06:55:58.435Z,19.60
2022-11-29T06:58:36.432Z,21.53
2022-11-29T07:01:22.835Z,27.48
2022-11-29T07:03:54.404Z,23.40
2022-11-29T07:06:22.836Z,26.50
2022-11-29T07:08:51.961Z,39.60
2022-11-29T07:11:19.627Z,23.95
2022-11-29T07:13:47.306Z,27.97
2022-11-29T07:16:28.304Z,20.33
2022-11-29T07:19:05.170Z,13.70
2022-11-29T07:22:08.244Z,15.10
2022-11-29T07:24:35.791Z,22.10
2022-11-29T07:27:15.750Z,21.17
2022-11-29T07:29:46.165Z,20.27
2022-11-29T07:32:28.890Z,10.10
2022-11-29T07:35:05.784Z,20.10
2022-11-29T07:37:59.624Z,17.33
2022-11-29T07:40:42.725Z,16.07
2022-11-29T07:43:31.989Z,11.70
2022-11-29T07:45:59.543Z,14.82
2022-11-29T07:48:27.076Z,19.55
2022-11-29T07:50:55.447Z,15.77
2022-11-29T07:53:23.134Z,16.20
2022-11-29T07:55:50.804Z,19.80
2022-11-29T07:58:18.574Z,16.83
2022-11-29T08:00:46.423Z,13.23
2022-11-29T08:03:14.044Z,13.27
2022-11-29T08:05:41.628Z,15.77
2022-11-29T08:08:09.267Z,15.32
2022-11-29T08:10:36.839Z,12.05
2022-11-29T08:13:04.459Z,15.18
2022-11-29T08:15:32.024Z,23.73
2022-11-29T08:17:59.621Z,20.60
2022-11-29T08:20:27.109Z,26.23
2022-11-29T08:22:58.689Z,9.97
2022-11-29T08:25:26.514Z,9.68
2022-11-29T08:27:54.851Z,12.27
2022-11-29T08:30:22.803Z,11.60
2022-11-29T08:32:51.817Z,19.98
2022-11-29T08:35:20.379Z,13.77
2022-11-29T08:37:48.013Z,18.50
2022-11-29T08:40:15.652Z,13.50
2022-11-29T08:42:43.172Z,16.63
2022-11-29T08:45:11.149Z,8.55
2022-11-29T08:47:38.934Z,8.73
2022-11-29T08:50:12.647Z,17.35
2022-11-29T08:53:00.021Z,20.38
2022-11-29T08:55:28.299Z,8.80
2022-11-29T08:57:56.331Z,13.18
2022-11-29T09:00:24.138Z,14.52
2022-11-29T09:02:51.884Z,9.45
2022-11-29T09:05:19.480Z,12.77
2022-11-29T09:07:47.201Z,16.77
2022-11-29T09:10:14.752Z,19.23
2022-11-29T09:12:45.037Z,16.57
2022-11-29T09:15:12.753Z,16.00
2022-11-29T09:17:40.324Z,14.90
2022-11-29T09:20:08.465Z,15.63
2022-11-29T09:22:36.006Z,16.73
2022-11-29T09:25:03.813Z,17.73
2022-11-29T09:27:34.250Z,17.17
2022-11-29T09:30:01.782Z,13.30
2022-11-29T09:32:29.409Z,14.68
2022-11-29T09:34:57.017Z,17.35
2022-11-29T09:37:24.513Z,13.13
2022-11-29T09:39:52.092Z,18.33
2022-11-29T09:42:19.616Z,21.23
2022-11-29T09:44:47.479Z,15.03
2022-11-29T09:47:50.959Z,14.73
2022-11-29T09:50:26.393Z,15.30
2022-11-29T09:53:12.419Z,12.27
2022-11-29T09:55:44.091Z,19.93
2022-11-29T09:58:13.784Z,11.95
2022-11-29T10:00:44.219Z,17.52
2022-11-29T10:03:14.731Z,16.47
2022-11-29T10:05:44.443Z,13.85
2022-11-29T10:08:29.426Z,15.65
2022-11-29T10:10:58.495Z,21.87
2022-11-29T10:13:26.887Z,19.00
2022-11-29T10:15:55.438Z,19.10
2022-11-29T10:18:29.103Z,17.63
2022-11-29T10:21:00.809Z,11.37
2022-11-29T10:23:35.689Z,14.68
2022-11-29T10:26:08.027Z,12.35
2022-11-29T10:28:35.972Z,10.53
2022-11-29T10:31:14.741Z,12.63
2022-11-29T10:33:42.441Z,20.92
2022-11-29T10:36:17.241Z,15.40
2022-11-29T10:38:44.760Z,24.40
2022-11-29T10:41:14.145Z,12.63
2022-11-29T10:43:43.126Z,14.05
2022-11-29T10:46:12.398Z,14.33
2022-11-29T10:48:39.966Z,14.70
2022-11-29T10:51:09.371Z,18.00
2022-11-29T10:53:37.570Z,17.57
2022-11-29T10:56:22.487Z,22.73
2022-11-29T10:59:03.539Z,15.18
2022-11-29T11:01:32.044Z,15.83
2022-11-29T11:03:59.721Z,12.57
2022-11-29T11:06:46.698Z,11.75
2022-11-29T11:09:20.660Z,15.23
2022-11-29T11:11:51.998Z,18.27
2022-11-29T11:14:21.424Z,9.70
2022-11-29T11:16:49.132Z,9.07
2022-11-29T11:19:25.940Z,13.07
2022-11-29T11:21:53.513Z,12.23
2022-11-29T11:24:25.250Z,8.18
2022-11-29T11:26:52.800Z,8.97
2022-11-29T11:29:20.996Z,8.93
2022-11-29T11:31:52.314Z,12.82
2022-11-29T11:34:28.767Z,9.73
2022-11-29T11:37:14.834Z,10.10
2022-11-29T11:39:42.940Z,11.43
2022-11-29T11:42:33.304Z,7.15
2022-11-29T11:45:01.141Z,7.97
2022-11-29T11:47:31.964Z,7.05
2022-11-29T11:50:02.607Z,10.88
2022-11-29T11:52:32.950Z,7.33
2022-11-29T11:55:08.135Z,8.50
2022-11-29T11:57:35.661Z,7.50
2022-11-29T12:00:06.965Z,10.88
2022-11-29T12:02:38.993Z,7.20
2022-11-29T12:05:17.722Z,6.22
2022-11-29T12:10:36.803Z,6.07
2022-11-29T12:13:04.411Z,5.63
2022-11-29T12:15:38.309Z,8.60
2022-11-29T12:18:12.379Z,6.60
2022-11-29T12:20:52.112Z,7.72
2022-11-29T12:23:23.511Z,5.82
2022-11-29T12:25:54.054Z,6.35
2022-11-29T12:28:22.039Z,7.03
2022-11-29T12:31:16.024Z,8.60
2022-11-29T12:33:54.458Z,8.00
2022-11-29T12:36:24.811Z,6.50
2022-11-29T12:38:53.524Z,6.40
2022-11-29T12:41:26.834Z,9.68
2022-11-29T12:43:56.820Z,6.67
2022-11-29T12:46:25.947Z,10.60
2022-11-29T12:49:12.107Z,9.40
2022-11-29T12:51:44.196Z,8.52
2022-11-29T12:54:11.871Z,11.10
2022-11-29T12:56:57.859Z,10.77
2022-11-29T12:59:28.360Z,9.30
2022-11-29T13:02:14.373Z,7.33
2022-11-29T13:04:55.031Z,7.47
2022-11-29T13:07:45.821Z,7.75
2022-11-29T13:10:32.225Z,13.70
2022-11-29T13:13:19.993Z,11.27
2022-11-29T13:15:53.469Z,9.45
2022-11-29T13:18:24.356Z,9.60
2022-11-29T13:20:57.216Z,8.20
2022-11-29T13:23:45.666Z,9.23
2022-11-29T13:26:25.720Z,7.85
2022-11-29T13:28:53.301Z,9.27
2022-11-29T13:31:22.728Z,8.98
2022-11-29T13:33:55.132Z,15.55
2022-11-29T13:36:41.228Z,11.43
2022-11-29T13:39:09.221Z,12.60
2022-11-29T13:41:47.344Z,13.35
2022-11-29T13:44:17.756Z,9.98
2022-11-29T13:47:04.713Z,9.43
2022-11-29T13:49:51.055Z,10.90
2022-11-29T13:52:27.600Z,11.35
2022-11-29T13:55:10.227Z,9.90
2022-11-29T14:00:46.818Z,11.73
2022-11-29T14:03:26.242Z,9.17
2022-11-29T14:05:54.524Z,13.25
2022-11-29T14:08:25.916Z,12.70
2022-11-29T14:10:57.208Z,12.77
2022-11-29T14:13:26.467Z,11.87
2022-11-29T14:15:58.187Z,9.55
2022-11-29T14:18:37.745Z,9.63
2022-11-29T14:21:05.528Z,11.50
2022-11-29T14:23:40.520Z,7.35
2022-11-29T14:26:08.070Z,7.05
2022-11-29T14:28:36.109Z,12.70
2022-11-29T14:31:04.384Z,11.73
2022-11-29T14:33:38.001Z,7.93
2022-11-29T14:36:20.949Z,13.75
2022-11-29T14:38:50.500Z,6.87
2022-11-29T14:41:29.830Z,8.05
2022-11-29T14:44:07.598Z,9.18
2022-11-29T14:46:35.141Z,8.87
2022-11-29T14:49:03.059Z,5.38
2022-11-29T14:51:32.439Z,6.22
2022-11-29T14:54:13.394Z,7.33
2022-11-29T14:56:45.057Z,8.82
2022-11-29T14:59:32.061Z,8.15
2022-11-29T15:01:59.918Z,6.15
2022-11-29T15:04:27.599Z,12.23
2022-11-29T15:06:55.714Z,6.88
2022-11-29T15:09:23.909Z,5.18
2022-11-29T15:11:54.465Z,5.67
2022-11-29T15:14:25.206Z,5.25
2022-11-29T15:17:25.097Z,6.35
2022-11-29T15:19:58.549Z,4.60
2022-11-29T15:22:27.687Z,5.47
2022-11-29T15:24:59.148Z,6.88
2022-11-29T15:27:27.015Z,4.90
2022-11-29T15:29:54.536Z,5.17
2022-11-29T15:32:26.062Z,8.07
2022-11-29T15:34:56.693Z,5.00
2022-11-29T15:37:39.506Z,4.87
2022-11-29T15:40:08.393Z,5.88
2022-11-29T15:42:39.884Z,5.30
2022-11-29T15:45:25.535Z,5.87
2022-11-29T15:47:54.088Z,6.35
2022-11-29T15:50:28.131Z,6.20
2022-11-29T15:52:57.230Z,6.60
2022-11-29T15:55:24.826Z,7.53
2022-11-29T15:57:52.535Z,5.55
2022-11-29T16:00:21.747Z,8.85
2022-11-29T16:02:52.240Z,5.60
2022-11-29T16:05:23.003Z,9.00
2022-11-29T16:07:51.495Z,9.38
2022-11-29T16:10:20.183Z,8.03
2022-11-29T16:13:10.966Z,7.10
2022-11-29T16:15:38.524Z,10.68
2022-11-29T16:18:06.697Z,8.60
2022-11-29T16:20:34.313Z,7.67
2022-11-29T16:23:04.690Z,8.80
2022-11-29T16:25:37.386Z,8.02
2022-11-29T16:28:06.823Z,9.57
2022-11-29T16:30:34.389Z,10.85
2022-11-29T16:33:03.563Z,9.02
2022-11-29T16:35:33.940Z,8.83
2022-11-29T16:38:04.478Z,12.13
2022-11-29T16:40:32.964Z,7.95
2022-11-29T16:43:19.416Z,9.25
2022-11-29T16:45:47.098Z,9.40
2022-11-29T16:48:25.577Z,9.48
2022-11-29T16:51:11.363Z,14.35
2022-11-29T16:53:39.624Z,10.70
2022-11-29T16:56:09.020Z,10.23
2022-11-29T16:58:42.941Z,12.48
2022-11-29T17:01:27.904Z,14.47
2022-11-29T17:03:56.574Z,14.68
2022-11-29T17:06:24.532Z,12.77
2022-11-29T17:08:52.430Z,18.40
2022-11-29T17:11:19.987Z,10.10
2022-11-29T17:13:50.381Z,15.30
2022-11-29T17:16:20.019Z,17.80
2022-11-29T17:18:47.676Z,13.23
2022-11-29T17:21:25.130Z,13.60
2022-11-29T17:23:52.872Z,14.43
2022-11-29T17:26:20.609Z,12.17
2022-11-29T17:28:48.757Z,12.45
2022-11-29T17:31:17.339Z,14.35
2022-11-29T17:33:44.915Z,16.05
2022-11-29T17:36:15.289Z,13.27
2022-11-29T17:38:43.132Z,13.38
2022-11-29T17:41:31.757Z,12.95
2022-11-29T17:43:59.351Z,15.40
2022-11-29T17:46:31.655Z,13.05
2022-11-29T17:48:59.585Z,13.02
2022-11-29T17:54:14.688Z,13.27
2022-11-29T17:56:42.281Z,14.48
2022-11-29T17:59:09.794Z,14.93
2022-11-29T18:01:37.430Z,14.80
2022-11-29T18:04:06.070Z,23.27
2022-11-29T18:06:37.335Z,14.25
2022-11-29T18:09:05.150Z,17.50
2022-11-29T18:11:42.994Z,15.48
2022-11-29T18:14:15.408Z,17.23
2022-11-29T18:16:43.074Z,20.97
2022-11-29T18:19:14.339Z,21.42
2022-11-29T18:21:41.938Z,16.30
2022-11-29T18:24:09.869Z,15.70
2022-11-29T18:26:37.520Z,14.97
2022-11-29T18:29:05.687Z,19.75
2022-11-29T18:31:34.400Z,14.80
2022-11-29T18:34:02.499Z,16.73
2022-11-29T18:36:31.076Z,14.23
2022-11-29T18:38:59.521Z,16.70
2022-11-29T18:41:28.421Z,19.10
2022-11-29T18:43:57.184Z,14.80
2022-11-29T18:46:26.140Z,16.50
2022-11-29T18:48:53.799Z,16.02
2022-11-29T18:51:22.045Z,16.37
2022-11-29T18:53:49.717Z,19.88
2022-11-29T18:56:18.586Z,25.80
2022-11-29T18:58:47.308Z,32.43
2022-11-29T19:01:18.787Z,33.70
2022-11-29T19:03:47.411Z,22.15
2022-11-29T19:06:15.963Z,22.47
2022-11-29T19:08:43.684Z,17.27
2022-11-29T19:11:12.523Z,19.27
2022-11-29T19:13:40.504Z,19.17
2022-11-29T19:16:12.915Z,19.57
2022-11-29T19:18:40.837Z,21.92
2022-11-29T19:21:11.894Z,21.75
2022-11-29T19:23:40.932Z,19.63
2022-11-29T19:26:12.343Z,20.08
2022-11-29T19:28:40.877Z,21.73
2022-11-29T19:31:08.788Z,24.40
2022-11-29T19:33:38.815Z,25.30
2022-11-29T19:36:11.412Z,27.33
2022-11-29T19:38:43.973Z,24.67
2022-11-29T19:41:17.341Z,26.67
2022-11-29T19:43:45.019Z,21.52
2022-11-29T19:46:16.494Z,26.77
2022-11-29T19:48:44.773Z,19.30
2022-11-29T19:51:12.470Z,26.02
2022-11-29T19:53:40.139Z,23.23
2022-11-29T19:56:08.300Z,21.57
2022-11-29T19:58:36.786Z,23.25
2022-11-29T20:01:14.888Z,21.23
2022-11-29T20:03:42.653Z,21.70
2022-11-29T20:06:15.998Z,22.53
2022-11-29T20:08:43.716Z,24.50
2022-11-29T20:11:15.397Z,21.63
2022-11-29T20:13:43.544Z,26.40
2022-11-29T20:16:11.886Z,22.48
2022-11-29T20:18:40.141Z,27.88
2022-11-29T20:21:10.856Z,23.77
2022-11-29T20:23:39.844Z,27.50
2022-11-29T20:26:08.197Z,24.77
2022-11-29T20:28:36.119Z,23.58
2022-11-29T20:31:09.108Z,21.70
2022-11-29T20:33:37.585Z,30.73
2022-11-29T20:36:24.050Z,25.25
2022-11-29T20:38:52.725Z,24.27
2022-11-29T20:41:25.340Z,24.45
2022-11-29T20:44:00.841Z,24.13
2022-11-29T20:46:28.885Z,25.03
2022-11-29T20:48:59.415Z,25.52
2022-11-29T20:51:35.980Z,22.02
2022-11-29T20:54:03.520Z,23.40
2022-11-29T20:56:31.061Z,24.70
2022-11-29T20:58:58.582Z,24.85
2022-11-29T21:01:26.210Z,25.83
2022-11-29T21:03:53.827Z,25.07
2022-11-29T21:06:21.449Z,22.20
2022-11-29T21:08:49.846Z,28.80
2022-11-29T21:11:17.621Z,20.07
2022-11-29T21:13:45.349Z,22.75
2022-11-29T21:16:13.307Z,28.52
2022-11-29T21:18:41.219Z,27.17
2022-11-29T21:21:11.146Z,25.80
2022-11-29T21:23:44.689Z,23.40
2022-11-29T21:26:20.749Z,23.85
2022-11-29T21:28:57.530Z,20.73
2022-11-29T21:31:25.235Z,31.77
2022-11-29T21:33:52.975Z,26.73
2022-11-29T21:36:20.486Z,31.70
2022-11-29T21:38:53.880Z,24.02
2022-11-29T21:41:22.649Z,34.22
2022-11-29T21:44:06.208Z,30.15
2022-11-29T21:46:34.655Z,30.60
2022-11-29T21:49:02.303Z,28.08
2022-11-29T21:51:30.106Z,27.98
2022-11-29T21:53:57.681Z,25.27
2022-11-29T21:56:25.477Z,23.90
2022-11-29T21:58:53.089Z,25.33
2022-11-29T22:01:20.894Z,23.70
2022-11-29T22:03:48.427Z,31.00
2022-11-29T22:06:18.639Z,28.45
2022-11-29T22:08:46.119Z,25.90
2022-11-29T22:11:14.318Z,28.00
2022-11-29T22:14:02.557Z,35.30
2022-11-29T22:16:31.224Z,31.10
2022-11-29T22:18:58.802Z,26.10
2022-11-29T22:21:26.458Z,26.10
2022-11-29T22:23:53.952Z,25.15
2022-11-29T22:26:21.517Z,27.93
2022-11-29T22:28:49.046Z,23.77
2022-11-29T22:31:16.755Z,27.80
2022-11-29T22:33:44.571Z,28.02
2022-11-29T22:36:14.924Z,25.83
2022-11-29T22:38:42.540Z,22.95
2022-11-29T22:41:10.932Z,25.33
2022-11-29T22:43:38.761Z,27.73
2022-11-29T22:46:09.119Z,27.30
2022-11-29T22:48:38.989Z,25.50
2022-11-29T22:51:07.666Z,27.07
2022-11-29T22:53:36.039Z,26.08
2022-11-29T22:56:04.008Z,29.35
2022-11-29T22:58:31.607Z,28.63
2022-11-29T23:01:09.625Z,30.80
2022-11-29T23:03:37.573Z,26.83
2022-11-29T23:06:06.000Z,29.88
2022-11-29T23:08:33.732Z,28.83
2022-11-29T23:11:06.684Z,29.13
2022-11-29T23:13:37.836Z,33.65
2022-11-29T23:16:05.950Z,30.50
2022-11-29T23:18:33.691Z,29.95
2022-11-29T23:21:08.096Z,31.42
2022-11-29T23:23:38.761Z,35.75
2022-11-29T23:26:06.466Z,28.43
2022-11-29T23:28:34.552Z,37.28
2022-11-29T23:31:02.188Z,27.88
2022-11-29T23:33:29.731Z,33.57
2022-11-29T23:36:00.786Z,27.98
2022-11-29T23:38:28.364Z,31.20
2022-11-29T23:40:55.979Z,39.97
2022-11-29T23:43:23.666Z,26.23
2022-11-29T23:45:51.246Z,30.35
2022-11-29T23:48:18.866Z,34.65
2022-11-29T23:50:46.504Z,27.27
2022-11-29T23:53:14.716Z,31.35
2022-11-29T23:55:42.481Z,27.27
2022-11-29T23:58:10.263Z,28.60
